sensor_id;sensor_type;location;lat;lon;timestamp;P1;durP1;ratioP1;P2;durP2;ratioP2
34405;SDS011;20658;45.630;8.886;2023-05-10T00:00:57;27.30;;;20.73;;
34405;SDS011;20658;45.630;8.886;2023-05-10T00:03:25;29.35;;;22.17;;
34405;SDS011;20658;45.630;8.886;2023-05-10T00:05:54;27.92;;;22.38;;
34405;SDS011;20658;45.630;8.886;2023-05-10T00:08:22;27.35;;;21.05;;
34405;SDS011;20658;45.630;8.886;2023-05-10T00:10:51;28.35;;;21.85;;
34405;SDS011;20658;45.630;8.886;2023-05-10T00:13:20;29.80;;;22.17;;
34405;SDS011;20658;45.630;8.886;2023-05-10T00:15:50;26.38;;;20.77;;
34405;SDS011;20658;45.630;8.886;2023-05-10T00:18:19;26.55;;;20.88;;
34405;SDS011;20658;45.630;8.886;2023-05-10T00:20:48;26.48;;;20.60;;
34405;SDS011;20658;45.630;8.886;2023-05-10T00:23:17;33.20;;;21.15;;
34405;SDS011;20658;45.630;8.886;2023-05-10T00:25:45;26.40;;;19.27;;
34405;SDS011;20658;45.630;8.886;2023-05-10T00:28:14;27.10;;;18.88;;
34405;SDS011;20658;45.630;8.886;2023-05-10T00:30:42;26.50;;;19.88;;
34405;SDS011;20658;45.630;8.886;2023-05-10T00:33:12;27.95;;;20.80;;
34405;SDS011;20658;45.630;8.886;2023-05-10T00:35:41;26.30;;;19.20;;
34405;SDS011;20658;45.630;8.886;2023-05-10T00:38:10;31.35;;;22.20;;
34405;SDS011;20658;45.630;8.886;2023-05-10T00:40:38;30.95;;;22.92;;
34405;SDS011;20658;45.630;8.886;2023-05-10T00:43:14;26.48;;;19.95;;
34405;SDS011;20658;45.630;8.886;2023-05-10T00:45:47;29.25;;;21.33;;
34405;SDS011;20658;45.630;8.886;2023-05-10T00:48:17;27.88;;;19.90;;
34405;SDS011;20658;45.630;8.886;2023-05-10T00:50:51;26.00;;;18.98;;
34405;SDS011;20658;45.630;8.886;2023-05-10T00:53:19;27.08;;;19.42;;
34405;SDS011;20658;45.630;8.886;2023-05-10T00:55:49;29.52;;;21.08;;
34405;SDS011;20658;45.630;8.886;2023-05-10T00:58:18;31.08;;;20.88;;
34405;SDS011;20658;45.630;8.886;2023-05-10T01:00:46;28.90;;;21.80;;
34405;SDS011;20658;45.630;8.886;2023-05-10T01:03:15;30.00;;;20.48;;
34405;SDS011;20658;45.630;8.886;2023-05-10T01:05:46;27.50;;;19.88;;
34405;SDS011;20658;45.630;8.886;2023-05-10T01:08:15;28.08;;;21.45;;
34405;SDS011;20658;45.630;8.886;2023-05-10T01:10:43;25.95;;;20.13;;
34405;SDS011;20658;45.630;8.886;2023-05-10T01:13:12;28.00;;;19.45;;
34405;SDS011;20658;45.630;8.886;2023-05-10T01:15:46;26.40;;;18.17;;
34405;SDS011;20658;45.630;8.886;2023-05-10T01:18:15;26.13;;;17.42;;
34405;SDS011;20658;45.630;8.886;2023-05-10T01:20:48;22.80;;;15.32;;
34405;SDS011;20658;45.630;8.886;2023-05-10T01:26:29;22.58;;;14.43;;
34405;SDS011;20658;45.630;8.886;2023-05-10T01:29:47;21.98;;;14.93;;
34405;SDS011;20658;45.630;8.886;2023-05-10T01:32:38;22.88;;;14.93;;
34405;SDS011;20658;45.630;8.886;2023-05-10T01:35:15;20.85;;;14.35;;
34405;SDS011;20658;45.630;8.886;2023-05-10T01:37:52;22.80;;;14.93;;
34405;SDS011;20658;45.630;8.886;2023-05-10T01:40:35;23.20;;;15.35;;
34405;SDS011;20658;45.630;8.886;2023-05-10T01:43:08;20.48;;;14.20;;
34405;SDS011;20658;45.630;8.886;2023-05-10T01:45:47;21.80;;;13.90;;
34405;SDS011;20658;45.630;8.886;2023-05-10T01:48:28;23.48;;;16.05;;
34405;SDS011;20658;45.630;8.886;2023-05-10T01:50:59;23.63;;;15.15;;
34405;SDS011;20658;45.630;8.886;2023-05-10T01:53:28;22.73;;;13.68;;
34405;SDS011;20658;45.630;8.886;2023-05-10T01:55:58;20.25;;;12.38;;
34405;SDS011;20658;45.630;8.886;2023-05-10T01:58:28;15.77;;;9.50;;
34405;SDS011;20658;45.630;8.886;2023-05-10T02:01:01;17.23;;;10.10;;
34405;SDS011;20658;45.630;8.886;2023-05-10T02:03:34;21.25;;;10.68;;
34405;SDS011;20658;45.630;8.886;2023-05-10T02:06:04;15.52;;;10.18;;
34405;SDS011;20658;45.630;8.886;2023-05-10T02:08:35;18.33;;;10.25;;
34405;SDS011;20658;45.630;8.886;2023-05-10T02:11:04;14.80;;;8.50;;
34405;SDS011;20658;45.630;8.886;2023-05-10T02:13:33;14.77;;;8.57;;
34405;SDS011;20658;45.630;8.886;2023-05-10T02:16:06;14.00;;;8.43;;
34405;SDS011;20658;45.630;8.886;2023-05-10T02:18:37;12.75;;;7.85;;
34405;SDS011;20658;45.630;8.886;2023-05-10T02:21:08;12.60;;;7.78;;
34405;SDS011;20658;45.630;8.886;2023-05-10T02:23:39;12.73;;;8.13;;
34405;SDS011;20658;45.630;8.886;2023-05-10T02:26:13;11.50;;;7.70;;
34405;SDS011;20658;45.630;8.886;2023-05-10T02:28:43;11.75;;;6.97;;
34405;SDS011;20658;45.630;8.886;2023-05-10T02:31:13;11.63;;;7.70;;
34405;SDS011;20658;45.630;8.886;2023-05-10T02:33:43;13.95;;;7.45;;
34405;SDS011;20658;45.630;8.886;2023-05-10T02:36:13;11.43;;;7.18;;
34405;SDS011;20658;45.630;8.886;2023-05-10T02:38:44;12.57;;;6.93;;
34405;SDS011;20658;45.630;8.886;2023-05-10T02:41:13;14.10;;;7.30;;
34405;SDS011;20658;45.630;8.886;2023-05-10T02:43:42;10.90;;;6.75;;
34405;SDS011;20658;45.630;8.886;2023-05-10T02:46:16;14.30;;;6.97;;
34405;SDS011;20658;45.630;8.886;2023-05-10T02:48:46;9.77;;;6.60;;
34405;SDS011;20658;45.630;8.886;2023-05-10T02:51:15;10.82;;;6.95;;
34405;SDS011;20658;45.630;8.886;2023-05-10T02:53:46;16.40;;;8.43;;
34405;SDS011;20658;45.630;8.886;2023-05-10T02:56:20;11.98;;;7.53;;
34405;SDS011;20658;45.630;8.886;2023-05-10T02:58:53;13.75;;;8.10;;
34405;SDS011;20658;45.630;8.886;2023-05-10T03:01:27;13.68;;;7.40;;
34405;SDS011;20658;45.630;8.886;2023-05-10T03:03:58;11.80;;;7.00;;
34405;SDS011;20658;45.630;8.886;2023-05-10T03:06:32;17.25;;;7.90;;
34405;SDS011;20658;45.630;8.886;2023-05-10T03:09:02;12.63;;;7.97;;
34405;SDS011;20658;45.630;8.886;2023-05-10T03:11:43;13.00;;;6.95;;
34405;SDS011;20658;45.630;8.886;2023-05-10T03:14:25;11.77;;;7.85;;
34405;SDS011;20658;45.630;8.886;2023-05-10T03:17:14;12.65;;;7.95;;
34405;SDS011;20658;45.630;8.886;2023-05-10T03:19:52;16.50;;;10.00;;
34405;SDS011;20658;45.630;8.886;2023-05-10T03:22:24;17.17;;;9.77;;
34405;SDS011;20658;45.630;8.886;2023-05-10T03:24:56;15.93;;;9.18;;
34405;SDS011;20658;45.630;8.886;2023-05-10T03:27:29;18.80;;;8.77;;
34405;SDS011;20658;45.630;8.886;2023-05-10T03:29:59;20.23;;;10.88;;
34405;SDS011;20658;45.630;8.886;2023-05-10T03:32:34;16.05;;;8.82;;
34405;SDS011;20658;45.630;8.886;2023-05-10T03:35:07;13.68;;;8.43;;
34405;SDS011;20658;45.630;8.886;2023-05-10T03:37:41;15.55;;;7.80;;
34405;SDS011;20658;45.630;8.886;2023-05-10T03:40:14;14.88;;;9.55;;
34405;SDS011;20658;45.630;8.886;2023-05-10T03:42:43;14.05;;;8.88;;
34405;SDS011;20658;45.630;8.886;2023-05-10T03:45:11;11.48;;;7.63;;
34405;SDS011;20658;45.630;8.886;2023-05-10T03:47:40;13.65;;;8.10;;
34405;SDS011;20658;45.630;8.886;2023-05-10T03:50:10;12.05;;;8.05;;
34405;SDS011;20658;45.630;8.886;2023-05-10T03:52:38;15.43;;;8.40;;
34405;SDS011;20658;45.630;8.886;2023-05-10T03:55:12;15.40;;;7.43;;
34405;SDS011;20658;45.630;8.886;2023-05-10T03:57:40;14.73;;;7.70;;
34405;SDS011;20658;45.630;8.886;2023-05-10T04:00:09;14.80;;;7.22;;
34405;SDS011;20658;45.630;8.886;2023-05-10T04:02:48;12.23;;;7.03;;
34405;SDS011;20658;45.630;8.886;2023-05-10T04:05:20;11.00;;;6.32;;
34405;SDS011;20658;45.630;8.886;2023-05-10T04:07:51;11.20;;;6.35;;
34405;SDS011;20658;45.630;8.886;2023-05-10T04:10:24;8.85;;;6.18;;
34405;SDS011;20658;45.630;8.886;2023-05-10T04:12:53;12.02;;;6.15;;
34405;SDS011;20658;45.630;8.886;2023-05-10T04:15:26;11.90;;;6.75;;
34405;SDS011;20658;45.630;8.886;2023-05-10T04:17:59;9.60;;;6.13;;
34405;SDS011;20658;45.630;8.886;2023-05-10T04:20:34;9.68;;;6.07;;
34405;SDS011;20658;45.630;8.886;2023-05-10T04:23:08;12.65;;;6.65;;
34405;SDS011;20658;45.630;8.886;2023-05-10T04:25:41;11.02;;;6.50;;
34405;SDS011;20658;45.630;8.886;2023-05-10T04:28:14;8.35;;;5.70;;
34405;SDS011;20658;45.630;8.886;2023-05-10T04:30:48;9.85;;;6.35;;
34405;SDS011;20658;45.630;8.886;2023-05-10T04:33:21;13.88;;;6.53;;
34405;SDS011;20658;45.630;8.886;2023-05-10T04:35:56;10.35;;;6.30;;
34405;SDS011;20658;45.630;8.886;2023-05-10T04:38:29;14.25;;;7.10;;
34405;SDS011;20658;45.630;8.886;2023-05-10T04:41:03;10.52;;;5.82;;
34405;SDS011;20658;45.630;8.886;2023-05-10T04:43:38;9.88;;;6.20;;
34405;SDS011;20658;45.630;8.886;2023-05-10T04:46:12;9.88;;;6.05;;
34405;SDS011;20658;45.630;8.886;2023-05-10T04:48:45;9.68;;;6.10;;
34405;SDS011;20658;45.630;8.886;2023-05-10T04:51:20;12.30;;;6.18;;
34405;SDS011;20658;45.630;8.886;2023-05-10T04:53:53;11.43;;;6.57;;
34405;SDS011;20658;45.630;8.886;2023-05-10T04:56:27;12.15;;;6.43;;
34405;SDS011;20658;45.630;8.886;2023-05-10T04:59:00;13.35;;;7.10;;
34405;SDS011;20658;45.630;8.886;2023-05-10T05:01:33;10.38;;;6.47;;
34405;SDS011;20658;45.630;8.886;2023-05-10T05:04:07;12.90;;;6.13;;
34405;SDS011;20658;45.630;8.886;2023-05-10T05:06:41;8.90;;;5.38;;
34405;SDS011;20658;45.630;8.886;2023-05-10T05:09:15;10.45;;;6.07;;
34405;SDS011;20658;45.630;8.886;2023-05-10T05:11:48;10.88;;;6.35;;
34405;SDS011;20658;45.630;8.886;2023-05-10T05:14:22;12.63;;;6.07;;
34405;SDS011;20658;45.630;8.886;2023-05-10T05:16:56;11.13;;;6.20;;
34405;SDS011;20658;45.630;8.886;2023-05-10T05:19:30;8.80;;;5.03;;
34405;SDS011;20658;45.630;8.886;2023-05-10T05:22:00;8.88;;;5.70;;
34405;SDS011;20658;45.630;8.886;2023-05-10T05:24:34;10.98;;;6.15;;
34405;SDS011;20658;45.630;8.886;2023-05-10T05:27:09;9.90;;;6.10;;
34405;SDS011;20658;45.630;8.886;2023-05-10T05:29:42;10.20;;;6.22;;
34405;SDS011;20658;45.630;8.886;2023-05-10T05:32:15;8.70;;;5.95;;
34405;SDS011;20658;45.630;8.886;2023-05-10T05:34:49;11.13;;;6.50;;
34405;SDS011;20658;45.630;8.886;2023-05-10T05:37:24;9.57;;;5.57;;
34405;SDS011;20658;45.630;8.886;2023-05-10T05:39:58;8.63;;;5.03;;
34405;SDS011;20658;45.630;8.886;2023-05-10T05:42:27;8.90;;;5.65;;
34405;SDS011;20658;45.630;8.886;2023-05-10T05:44:56;8.43;;;5.80;;
34405;SDS011;20658;45.630;8.886;2023-05-10T05:47:29;11.82;;;5.10;;
34405;SDS011;20658;45.630;8.886;2023-05-10T05:50:03;12.75;;;5.82;;
34405;SDS011;20658;45.630;8.886;2023-05-10T05:52:39;9.98;;;5.00;;
34405;SDS011;20658;45.630;8.886;2023-05-10T05:55:12;8.93;;;4.80;;
34405;SDS011;20658;45.630;8.886;2023-05-10T05:57:46;10.15;;;6.00;;
34405;SDS011;20658;45.630;8.886;2023-05-10T06:00:19;10.15;;;5.63;;
34405;SDS011;20658;45.630;8.886;2023-05-10T06:02:53;11.45;;;5.90;;
34405;SDS011;20658;45.630;8.886;2023-05-10T06:05:27;10.70;;;5.38;;
34405;SDS011;20658;45.630;8.886;2023-05-10T06:08:02;9.00;;;5.13;;
34405;SDS011;20658;45.630;8.886;2023-05-10T06:10:36;10.05;;;5.88;;
34405;SDS011;20658;45.630;8.886;2023-05-10T06:13:10;8.10;;;5.95;;
34405;SDS011;20658;45.630;8.886;2023-05-10T06:15:43;10.43;;;5.85;;
34405;SDS011;20658;45.630;8.886;2023-05-10T06:18:17;9.65;;;6.32;;
34405;SDS011;20658;45.630;8.886;2023-05-10T06:20:50;9.43;;;5.72;;
34405;SDS011;20658;45.630;8.886;2023-05-10T06:23:25;9.98;;;6.97;;
34405;SDS011;20658;45.630;8.886;2023-05-10T06:25:58;12.43;;;6.65;;
34405;SDS011;20658;45.630;8.886;2023-05-10T06:28:32;12.80;;;6.95;;
34405;SDS011;20658;45.630;8.886;2023-05-10T06:31:08;12.95;;;6.88;;
34405;SDS011;20658;45.630;8.886;2023-05-10T06:33:43;10.57;;;7.10;;
34405;SDS011;20658;45.630;8.886;2023-05-10T06:36:16;13.50;;;6.63;;
34405;SDS011;20658;45.630;8.886;2023-05-10T06:38:51;10.50;;;6.82;;
34405;SDS011;20658;45.630;8.886;2023-05-10T06:41:24;12.30;;;6.70;;
34405;SDS011;20658;45.630;8.886;2023-05-10T06:43:58;9.35;;;6.25;;
34405;SDS011;20658;45.630;8.886;2023-05-10T06:46:31;10.98;;;6.85;;
34405;SDS011;20658;45.630;8.886;2023-05-10T06:49:04;8.95;;;5.80;;
34405;SDS011;20658;45.630;8.886;2023-05-10T06:51:38;12.20;;;6.50;;
34405;SDS011;20658;45.630;8.886;2023-05-10T06:54:12;9.80;;;6.55;;
34405;SDS011;20658;45.630;8.886;2023-05-10T06:56:46;11.50;;;7.07;;
34405;SDS011;20658;45.630;8.886;2023-05-10T06:59:19;11.10;;;7.05;;
34405;SDS011;20658;45.630;8.886;2023-05-10T07:01:52;13.23;;;7.28;;
34405;SDS011;20658;45.630;8.886;2023-05-10T07:04:26;10.32;;;6.38;;
34405;SDS011;20658;45.630;8.886;2023-05-10T07:06:59;13.13;;;7.88;;
34405;SDS011;20658;45.630;8.886;2023-05-10T07:09:34;10.55;;;6.47;;
34405;SDS011;20658;45.630;8.886;2023-05-10T07:12:07;10.60;;;6.03;;
34405;SDS011;20658;45.630;8.886;2023-05-10T07:14:41;9.65;;;6.25;;
34405;SDS011;20658;45.630;8.886;2023-05-10T07:17:15;12.90;;;6.38;;
34405;SDS011;20658;45.630;8.886;2023-05-10T07:19:48;9.40;;;6.63;;
34405;SDS011;20658;45.630;8.886;2023-05-10T07:22:21;11.60;;;6.47;;
34405;SDS011;20658;45.630;8.886;2023-05-10T07:24:56;10.95;;;6.15;;
34405;SDS011;20658;45.630;8.886;2023-05-10T07:27:30;8.95;;;6.18;;
34405;SDS011;20658;45.630;8.886;2023-05-10T07:30:04;12.15;;;7.30;;
34405;SDS011;20658;45.630;8.886;2023-05-10T07:32:39;12.82;;;7.22;;
34405;SDS011;20658;45.630;8.886;2023-05-10T07:35:08;14.15;;;7.60;;
34405;SDS011;20658;45.630;8.886;2023-05-10T07:37:41;12.70;;;7.80;;
34405;SDS011;20658;45.630;8.886;2023-05-10T07:40:16;10.27;;;7.35;;
34405;SDS011;20658;45.630;8.886;2023-05-10T07:42:50;11.38;;;7.00;;
34405;SDS011;20658;45.630;8.886;2023-05-10T07:45:23;14.40;;;7.63;;
34405;SDS011;20658;45.630;8.886;2023-05-10T07:47:56;11.10;;;7.10;;
34405;SDS011;20658;45.630;8.886;2023-05-10T07:50:30;12.48;;;7.60;;
34405;SDS011;20658;45.630;8.886;2023-05-10T07:53:03;11.52;;;7.90;;
34405;SDS011;20658;45.630;8.886;2023-05-10T07:55:38;12.13;;;7.30;;
34405;SDS011;20658;45.630;8.886;2023-05-10T07:58:11;11.15;;;7.28;;
34405;SDS011;20658;45.630;8.886;2023-05-10T08:00:45;13.40;;;7.18;;
34405;SDS011;20658;45.630;8.886;2023-05-10T08:03:19;11.15;;;6.80;;
34405;SDS011;20658;45.630;8.886;2023-05-10T08:05:53;10.57;;;6.00;;
34405;SDS011;20658;45.630;8.886;2023-05-10T08:08:27;12.32;;;6.88;;
34405;SDS011;20658;45.630;8.886;2023-05-10T08:11:01;10.20;;;6.78;;
34405;SDS011;20658;45.630;8.886;2023-05-10T08:13:36;10.05;;;7.00;;
34405;SDS011;20658;45.630;8.886;2023-05-10T08:16:09;10.15;;;6.82;;
34405;SDS011;20658;45.630;8.886;2023-05-10T08:18:43;11.45;;;6.53;;
34405;SDS011;20658;45.630;8.886;2023-05-10T08:21:18;9.73;;;6.72;;
34405;SDS011;20658;45.630;8.886;2023-05-10T08:23:51;11.43;;;6.05;;
34405;SDS011;20658;45.630;8.886;2023-05-10T08:26:26;7.82;;;5.40;;
34405;SDS011;20658;45.630;8.886;2023-05-10T08:28:59;9.40;;;5.88;;
34405;SDS011;20658;45.630;8.886;2023-05-10T08:31:33;10.55;;;6.20;;
34405;SDS011;20658;45.630;8.886;2023-05-10T08:34:01;10.00;;;6.00;;
34405;SDS011;20658;45.630;8.886;2023-05-10T08:36:34;9.85;;;6.13;;
34405;SDS011;20658;45.630;8.886;2023-05-10T08:39:08;7.75;;;5.07;;
34405;SDS011;20658;45.630;8.886;2023-05-10T08:41:42;10.52;;;5.78;;
34405;SDS011;20658;45.630;8.886;2023-05-10T08:44:17;11.63;;;4.97;;
34405;SDS011;20658;45.630;8.886;2023-05-10T08:46:52;10.75;;;5.85;;
34405;SDS011;20658;45.630;8.886;2023-05-10T08:49:27;8.70;;;6.50;;
34405;SDS011;20658;45.630;8.886;2023-05-10T08:52:04;8.65;;;5.80;;
34405;SDS011;20658;45.630;8.886;2023-05-10T08:54:39;8.63;;;5.30;;
34405;SDS011;20658;45.630;8.886;2023-05-10T08:57:15;11.63;;;5.97;;
34405;SDS011;20658;45.630;8.886;2023-05-10T08:59:48;10.05;;;6.15;;
34405;SDS011;20658;45.630;8.886;2023-05-10T09:02:22;9.90;;;5.95;;
34405;SDS011;20658;45.630;8.886;2023-05-10T09:04:56;9.10;;;5.32;;
34405;SDS011;20658;45.630;8.886;2023-05-10T09:07:30;8.82;;;5.53;;
34405;SDS011;20658;45.630;8.886;2023-05-10T09:10:04;7.38;;;5.20;;
34405;SDS011;20658;45.630;8.886;2023-05-10T09:12:40;5.72;;;4.25;;
34405;SDS011;20658;45.630;8.886;2023-05-10T09:15:15;7.75;;;6.03;;
34405;SDS011;20658;45.630;8.886;2023-05-10T09:17:50;8.57;;;4.85;;
34405;SDS011;20658;45.630;8.886;2023-05-10T09:20:23;7.55;;;5.30;;
34405;SDS011;20658;45.630;8.886;2023-05-10T09:22:57;7.63;;;4.80;;
34405;SDS011;20658;45.630;8.886;2023-05-10T09:25:30;9.85;;;4.45;;
34405;SDS011;20658;45.630;8.886;2023-05-10T09:28:09;6.75;;;4.28;;
34405;SDS011;20658;45.630;8.886;2023-05-10T09:30:43;10.43;;;5.10;;
34405;SDS011;20658;45.630;8.886;2023-05-10T09:33:26;8.75;;;4.97;;
34405;SDS011;20658;45.630;8.886;2023-05-10T09:36:06;7.03;;;4.32;;
34405;SDS011;20658;45.630;8.886;2023-05-10T09:38:47;7.80;;;4.55;;
34405;SDS011;20658;45.630;8.886;2023-05-10T09:41:17;12.85;;;5.10;;
34405;SDS011;20658;45.630;8.886;2023-05-10T09:43:49;6.10;;;4.73;;
34405;SDS011;20658;45.630;8.886;2023-05-10T09:46:28;9.27;;;4.45;;
34405;SDS011;20658;45.630;8.886;2023-05-10T09:49:01;9.48;;;5.75;;
34405;SDS011;20658;45.630;8.886;2023-05-10T09:51:29;7.00;;;5.35;;
34405;SDS011;20658;45.630;8.886;2023-05-10T09:54:11;7.78;;;4.85;;
34405;SDS011;20658;45.630;8.886;2023-05-10T09:56:46;8.50;;;5.93;;
34405;SDS011;20658;45.630;8.886;2023-05-10T09:59:21;9.95;;;5.72;;
34405;SDS011;20658;45.630;8.886;2023-05-10T10:01:52;9.45;;;5.57;;
34405;SDS011;20658;45.630;8.886;2023-05-10T10:04:28;7.95;;;5.07;;
34405;SDS011;20658;45.630;8.886;2023-05-10T10:07:02;9.48;;;6.07;;
34405;SDS011;20658;45.630;8.886;2023-05-10T10:09:33;9.95;;;5.78;;
34405;SDS011;20658;45.630;8.886;2023-05-10T10:12:07;8.98;;;5.57;;
34405;SDS011;20658;45.630;8.886;2023-05-10T10:14:42;9.40;;;5.93;;
34405;SDS011;20658;45.630;8.886;2023-05-10T10:17:16;9.65;;;6.25;;
34405;SDS011;20658;45.630;8.886;2023-05-10T10:19:52;10.45;;;5.25;;
34405;SDS011;20658;45.630;8.886;2023-05-10T10:22:21;8.43;;;5.72;;
34405;SDS011;20658;45.630;8.886;2023-05-10T10:24:54;9.43;;;5.38;;
34405;SDS011;20658;45.630;8.886;2023-05-10T10:27:23;9.93;;;5.88;;
34405;SDS011;20658;45.630;8.886;2023-05-10T10:30:16;7.45;;;5.47;;
34405;SDS011;20658;45.630;8.886;2023-05-10T10:33:06;10.70;;;5.93;;
34405;SDS011;20658;45.630;8.886;2023-05-10T10:36:03;10.25;;;5.70;;
34405;SDS011;20658;45.630;8.886;2023-05-10T10:41:32;10.45;;;5.90;;
34405;SDS011;20658;45.630;8.886;2023-05-10T10:47:23;7.05;;;5.13;;
34405;SDS011;20658;45.630;8.886;2023-05-10T10:50:03;9.55;;;5.47;;
34405;SDS011;20658;45.630;8.886;2023-05-10T10:52:38;8.43;;;4.40;;
34405;SDS011;20658;45.630;8.886;2023-05-10T10:55:13;10.38;;;5.78;;
34405;SDS011;20658;45.630;8.886;2023-05-10T10:57:49;10.18;;;5.28;;
34405;SDS011;20658;45.630;8.886;2023-05-10T11:00:33;14.98;;;6.15;;
34405;SDS011;20658;45.630;8.886;2023-05-10T11:03:10;10.75;;;6.13;;
34405;SDS011;20658;45.630;8.886;2023-05-10T11:05:46;10.65;;;6.28;;
34405;SDS011;20658;45.630;8.886;2023-05-10T11:08:25;9.93;;;6.15;;
34405;SDS011;20658;45.630;8.886;2023-05-10T11:11:02;9.35;;;5.68;;
34405;SDS011;20658;45.630;8.886;2023-05-10T11:13:41;10.52;;;6.28;;
34405;SDS011;20658;45.630;8.886;2023-05-10T11:16:15;10.32;;;5.78;;
34405;SDS011;20658;45.630;8.886;2023-05-10T11:18:59;10.98;;;6.22;;
34405;SDS011;20658;45.630;8.886;2023-05-10T11:21:44;7.78;;;5.50;;
34405;SDS011;20658;45.630;8.886;2023-05-10T11:24:20;8.13;;;5.13;;
34405;SDS011;20658;45.630;8.886;2023-05-10T11:26:50;8.37;;;5.13;;
34405;SDS011;20658;45.630;8.886;2023-05-10T11:29:24;8.98;;;5.93;;
34405;SDS011;20658;45.630;8.886;2023-05-10T11:31:58;9.80;;;6.18;;
34405;SDS011;20658;45.630;8.886;2023-05-10T11:34:33;10.50;;;5.75;;
34405;SDS011;20658;45.630;8.886;2023-05-10T11:37:06;9.57;;;5.38;;
34405;SDS011;20658;45.630;8.886;2023-05-10T11:39:45;7.88;;;5.10;;
34405;SDS011;20658;45.630;8.886;2023-05-10T11:42:18;7.40;;;4.60;;
34405;SDS011;20658;45.630;8.886;2023-05-10T11:44:47;11.07;;;5.70;;
34405;SDS011;20658;45.630;8.886;2023-05-10T11:47:21;7.97;;;5.40;;
34405;SDS011;20658;45.630;8.886;2023-05-10T11:49:56;12.30;;;5.47;;
34405;SDS011;20658;45.630;8.886;2023-05-10T11:52:34;7.78;;;4.85;;
34405;SDS011;20658;45.630;8.886;2023-05-10T11:55:09;8.35;;;5.30;;
34405;SDS011;20658;45.630;8.886;2023-05-10T11:57:42;9.77;;;4.80;;
34405;SDS011;20658;45.630;8.886;2023-05-10T12:00:17;11.13;;;6.15;;
34405;SDS011;20658;45.630;8.886;2023-05-10T12:02:51;9.73;;;4.88;;
34405;SDS011;20658;45.630;8.886;2023-05-10T12:05:25;9.40;;;5.53;;
34405;SDS011;20658;45.630;8.886;2023-05-10T12:08:12;6.65;;;4.97;;
34405;SDS011;20658;45.630;8.886;2023-05-10T12:10:41;7.53;;;5.18;;
34405;SDS011;20658;45.630;8.886;2023-05-10T12:13:14;5.97;;;4.47;;
34405;SDS011;20658;45.630;8.886;2023-05-10T12:15:48;6.95;;;4.93;;
34405;SDS011;20658;45.630;8.886;2023-05-10T12:18:22;8.90;;;5.20;;
34405;SDS011;20658;45.630;8.886;2023-05-10T12:21:02;13.77;;;9.60;;
34405;SDS011;20658;45.630;8.886;2023-05-10T12:23:31;10.77;;;6.68;;
34405;SDS011;20658;45.630;8.886;2023-05-10T12:26:01;9.30;;;5.15;;
34405;SDS011;20658;45.630;8.886;2023-05-10T12:28:36;8.90;;;6.22;;
34405;SDS011;20658;45.630;8.886;2023-05-10T12:31:10;8.88;;;5.68;;
34405;SDS011;20658;45.630;8.886;2023-05-10T12:33:43;7.97;;;5.25;;
34405;SDS011;20658;45.630;8.886;2023-05-10T12:36:16;11.48;;;6.10;;
34405;SDS011;20658;45.630;8.886;2023-05-10T12:39:01;7.80;;;5.20;;
34405;SDS011;20658;45.630;8.886;2023-05-10T12:41:31;7.35;;;4.90;;
34405;SDS011;20658;45.630;8.886;2023-05-10T12:44:04;8.50;;;5.68;;
34405;SDS011;20658;45.630;8.886;2023-05-10T12:46:37;10.63;;;6.03;;
34405;SDS011;20658;45.630;8.886;2023-05-10T12:49:11;8.80;;;5.30;;
34405;SDS011;20658;45.630;8.886;2023-05-10T12:51:45;8.70;;;5.43;;
34405;SDS011;20658;45.630;8.886;2023-05-10T12:54:19;11.70;;;5.85;;
34405;SDS011;20658;45.630;8.886;2023-05-10T12:56:52;14.63;;;6.38;;
34405;SDS011;20658;45.630;8.886;2023-05-10T12:59:21;9.80;;;5.93;;
34405;SDS011;20658;45.630;8.886;2023-05-10T13:01:49;10.48;;;6.10;;
34405;SDS011;20658;45.630;8.886;2023-05-10T13:04:23;8.77;;;5.57;;
34405;SDS011;20658;45.630;8.886;2023-05-10T13:06:57;12.52;;;6.10;;
34405;SDS011;20658;45.630;8.886;2023-05-10T13:09:31;24.00;;;8.38;;
34405;SDS011;20658;45.630;8.886;2023-05-10T13:12:04;12.10;;;5.68;;
34405;SDS011;20658;45.630;8.886;2023-05-10T13:14:38;9.00;;;5.97;;
34405;SDS011;20658;45.630;8.886;2023-05-10T13:17:07;7.20;;;5.53;;
34405;SDS011;20658;45.630;8.886;2023-05-10T13:19:36;8.45;;;5.65;;
34405;SDS011;20658;45.630;8.886;2023-05-10T13:22:10;7.50;;;5.28;;
34405;SDS011;20658;45.630;8.886;2023-05-10T13:24:44;7.65;;;5.75;;
34405;SDS011;20658;45.630;8.886;2023-05-10T13:27:17;8.07;;;5.40;;
34405;SDS011;20658;45.630;8.886;2023-05-10T13:29:50;10.45;;;5.60;;
34405;SDS011;20658;45.630;8.886;2023-05-10T13:32:24;7.90;;;5.32;;
34405;SDS011;20658;45.630;8.886;2023-05-10T13:34:57;8.90;;;5.10;;
34405;SDS011;20658;45.630;8.886;2023-05-10T13:37:27;8.32;;;6.10;;
34405;SDS011;20658;45.630;8.886;2023-05-10T13:40:01;9.60;;;6.72;;
34405;SDS011;20658;45.630;8.886;2023-05-10T13:42:35;10.05;;;6.30;;
34405;SDS011;20658;45.630;8.886;2023-05-10T13:45:08;8.20;;;6.00;;
34405;SDS011;20658;45.630;8.886;2023-05-10T13:47:44;8.45;;;5.50;;
34405;SDS011;20658;45.630;8.886;2023-05-10T13:50:17;11.45;;;5.88;;
34405;SDS011;20658;45.630;8.886;2023-05-10T13:52:52;6.65;;;5.00;;
34405;SDS011;20658;45.630;8.886;2023-05-10T13:55:25;8.73;;;5.72;;
34405;SDS011;20658;45.630;8.886;2023-05-10T13:57:54;7.72;;;5.20;;
34405;SDS011;20658;45.630;8.886;2023-05-10T14:00:28;10.63;;;6.93;;
34405;SDS011;20658;45.630;8.886;2023-05-10T14:03:01;23.90;;;14.27;;
34405;SDS011;20658;45.630;8.886;2023-05-10T14:05:36;13.00;;;6.60;;
34405;SDS011;20658;45.630;8.886;2023-05-10T14:08:06;14.77;;;7.25;;
34405;SDS011;20658;45.630;8.886;2023-05-10T14:10:35;15.50;;;7.32;;
34405;SDS011;20658;45.630;8.886;2023-05-10T14:13:09;11.73;;;6.25;;
34405;SDS011;20658;45.630;8.886;2023-05-10T14:15:42;11.90;;;7.55;;
34405;SDS011;20658;45.630;8.886;2023-05-10T14:18:15;10.00;;;6.45;;
34405;SDS011;20658;45.630;8.886;2023-05-10T14:20:44;10.98;;;6.03;;
34405;SDS011;20658;45.630;8.886;2023-05-10T14:23:14;7.85;;;5.93;;
34405;SDS011;20658;45.630;8.886;2023-05-10T14:25:42;9.68;;;5.50;;
34405;SDS011;20658;45.630;8.886;2023-05-10T14:28:15;7.90;;;5.43;;
34405;SDS011;20658;45.630;8.886;2023-05-10T14:30:45;7.70;;;5.68;;
34405;SDS011;20658;45.630;8.886;2023-05-10T14:33:19;8.85;;;5.72;;
34405;SDS011;20658;45.630;8.886;2023-05-10T14:35:48;8.93;;;5.72;;
34405;SDS011;20658;45.630;8.886;2023-05-10T14:38:23;7.45;;;5.63;;
34405;SDS011;20658;45.630;8.886;2023-05-10T14:40:56;8.75;;;5.90;;
34405;SDS011;20658;45.630;8.886;2023-05-10T14:43:30;8.32;;;5.15;;
34405;SDS011;20658;45.630;8.886;2023-05-10T14:46:03;7.45;;;4.82;;
34405;SDS011;20658;45.630;8.886;2023-05-10T14:48:37;10.50;;;5.85;;
34405;SDS011;20658;45.630;8.886;2023-05-10T14:51:05;7.68;;;5.57;;
34405;SDS011;20658;45.630;8.886;2023-05-10T14:53:35;8.88;;;5.43;;
34405;SDS011;20658;45.630;8.886;2023-05-10T14:56:08;8.30;;;5.50;;
34405;SDS011;20658;45.630;8.886;2023-05-10T14:58:42;8.25;;;5.28;;
34405;SDS011;20658;45.630;8.886;2023-05-10T15:01:15;13.15;;;7.68;;
34405;SDS011;20658;45.630;8.886;2023-05-10T15:03:48;8.82;;;5.95;;
34405;SDS011;20658;45.630;8.886;2023-05-10T15:06:22;8.20;;;5.60;;
34405;SDS011;20658;45.630;8.886;2023-05-10T15:08:59;9.98;;;5.93;;
34405;SDS011;20658;45.630;8.886;2023-05-10T15:11:34;6.93;;;5.35;;
34405;SDS011;20658;45.630;8.886;2023-05-10T15:14:03;9.02;;;5.70;;
34405;SDS011;20658;45.630;8.886;2023-05-10T15:16:37;10.18;;;5.97;;
34405;SDS011;20658;45.630;8.886;2023-05-10T15:19:10;7.30;;;5.32;;
34405;SDS011;20658;45.630;8.886;2023-05-10T15:21:38;6.88;;;4.85;;
34405;SDS011;20658;45.630;8.886;2023-05-10T15:24:15;7.32;;;4.63;;